sensor_id;sensor_type;location;lat;lon;timestamp;pressure;altitude;pressure_sealevel;temperature;humidity
66430;BME280;53242;51.694;10.006;2023-05-13T00:02:07;99849.94;;;14.17;56.42
66430;BME280;53242;51.694;10.006;2023-05-13T00:04:29;99839.59;;;13.89;56.75
66430;BME280;53242;51.694;10.006;2023-05-13T00:06:52;99843.69;;;13.85;56.80
66430;BME280;53242;51.694;10.006;2023-05-13T00:09:14;99851.19;;;13.94;56.67
66430;BME280;53242;51.694;10.006;2023-05-13T00:11:36;99845.91;;;13.94;57.03
66430;BME280;53242;51.694;10.006;2023-05-13T00:13:59;99849.78;;;13.92;56.73
66430;BME280;53242;51.694;10.006;2023-05-13T00:16:21;99846.91;;;14.00;56.58
66430;BME280;53242;51.694;10.006;2023-05-13T00:18:46;99856.09;;;13.91;56.85
66430;BME280;53242;51.694;10.006;2023-05-13T00:21:09;99852.41;;;14.05;56.61
66430;BME280;53242;51.694;10.006;2023-05-13T00:23:31;99853.69;;;13.82;56.99
66430;BME280;53242;51.694;10.006;2023-05-13T00:25:53;99856.09;;;13.97;57.08
66430;BME280;53242;51.694;10.006;2023-05-13T00:28:16;99857.34;;;13.95;57.20
66430;BME280;53242;51.694;10.006;2023-05-13T00:30:42;99855.28;;;13.97;57.00
66430;BME280;53242;51.694;10.006;2023-05-13T00:33:05;99857.75;;;13.92;57.28
66430;BME280;53242;51.694;10.006;2023-05-13T00:35:28;99862.25;;;13.91;58.08
66430;BME280;53242;51.694;10.006;2023-05-13T00:37:51;99860.44;;;13.78;58.71
66430;BME280;53242;51.694;10.006;2023-05-13T00:40:19;99853.91;;;13.74;59.84
66430;BME280;53242;51.694;10.006;2023-05-13T00:42:41;99858.19;;;13.69;59.28
66430;BME280;53242;51.694;10.006;2023-05-13T00:45:04;99854.91;;;13.80;58.57
66430;BME280;53242;51.694;10.006;2023-05-13T00:47:27;99861.00;;;13.80;58.48
66430;BME280;53242;51.694;10.006;2023-05-13T00:49:50;99855.50;;;13.75;58.68
66430;BME280;53242;51.694;10.006;2023-05-13T00:52:13;99861.22;;;13.79;58.35
66430;BME280;53242;51.694;10.006;2023-05-13T00:54:35;99854.13;;;13.53;59.19
66430;BME280;53242;51.694;10.006;2023-05-13T00:56:58;99859.03;;;13.42;59.23
66430;BME280;53242;51.694;10.006;2023-05-13T00:59:22;99854.53;;;13.43;59.20
66430;BME280;53242;51.694;10.006;2023-05-13T01:10:24;99854.94;;;13.46;59.92
66430;BME280;53242;51.694;10.006;2023-05-13T01:12:52;99846.78;;;13.41;59.65
66430;BME280;53242;51.694;10.006;2023-05-13T01:15:22;99848.38;;;13.29;60.27
66430;BME280;53242;51.694;10.006;2023-05-13T01:17:49;99847.34;;;13.30;60.23
66430;BME280;53242;51.694;10.006;2023-05-13T01:20:17;99848.78;;;13.26;60.50
66430;BME280;53242;51.694;10.006;2023-05-13T01:22:42;99853.50;;;13.51;58.85
66430;BME280;53242;51.694;10.006;2023-05-13T01:25:04;99860.84;;;13.55;58.24
66430;BME280;53242;51.694;10.006;2023-05-13T01:27:27;99852.09;;;13.61;57.89
66430;BME280;53242;51.694;10.006;2023-05-13T01:29:51;99856.97;;;13.64;57.76
66430;BME280;53242;51.694;10.006;2023-05-13T01:32:20;99863.28;;;13.63;57.88
66430;BME280;53242;51.694;10.006;2023-05-13T01:34:44;99862.28;;;13.58;57.89
66430;BME280;53242;51.694;10.006;2023-05-13T01:37:07;99865.31;;;13.55;58.16
66430;BME280;53242;51.694;10.006;2023-05-13T01:39:31;99865.75;;;13.58;59.10
66430;BME280;53242;51.694;10.006;2023-05-13T01:41:57;99864.31;;;13.36;59.43
66430;BME280;53242;51.694;10.006;2023-05-13T01:44:20;99856.53;;;13.27;59.55
66430;BME280;53242;51.694;10.006;2023-05-13T01:46:43;99863.06;;;13.18;60.32
66430;BME280;53242;51.694;10.006;2023-05-13T01:49:05;99867.53;;;13.11;60.60
66430;BME280;53242;51.694;10.006;2023-05-13T01:51:30;99867.34;;;13.26;60.29
66430;BME280;53242;51.694;10.006;2023-05-13T01:53:53;99862.88;;;13.33;59.39
66430;BME280;53242;51.694;10.006;2023-05-13T01:56:16;99874.44;;;13.05;60.01
66430;BME280;53242;51.694;10.006;2023-05-13T01:58:38;99864.47;;;13.21;59.87
66430;BME280;53242;51.694;10.006;2023-05-13T02:01:00;99868.97;;;13.20;59.90
66430;BME280;53242;51.694;10.006;2023-05-13T02:03:24;99873.44;;;13.13;60.09
66430;BME280;53242;51.694;10.006;2023-05-13T02:05:47;99868.78;;;13.22;59.40
66430;BME280;53242;51.694;10.006;2023-05-13T02:08:10;99863.84;;;13.19;59.31
66430;BME280;53242;51.694;10.006;2023-05-13T02:10:34;99869.16;;;13.12;59.66
66430;BME280;53242;51.694;10.006;2023-05-13T02:12:56;99871.59;;;13.07;59.88
66430;BME280;53242;51.694;10.006;2023-05-13T02:15:19;99870.16;;;13.18;59.28
66430;BME280;53242;51.694;10.006;2023-05-13T02:17:41;99870.16;;;13.11;59.11
66430;BME280;53242;51.694;10.006;2023-05-13T02:20:04;99869.56;;;13.09;59.67
66430;BME280;53242;51.694;10.006;2023-05-13T02:22:27;99867.94;;;13.14;59.24
66430;BME280;53242;51.694;10.006;2023-05-13T02:24:49;99873.03;;;13.09;59.21
66430;BME280;53242;51.694;10.006;2023-05-13T02:27:12;99868.94;;;13.07;59.42
66430;BME280;53242;51.694;10.006;2023-05-13T02:29:37;99873.03;;;13.09;59.31
66430;BME280;53242;51.694;10.006;2023-05-13T02:32:00;99873.41;;;12.99;60.00
66430;BME280;53242;51.694;10.006;2023-05-13T02:34:23;99882.75;;;12.89;60.04
66430;BME280;53242;51.694;10.006;2023-05-13T02:36:45;99882.34;;;12.92;60.06
66430;BME280;53242;51.694;10.006;2023-05-13T02:39:09;99882.97;;;12.80;61.01
66430;BME280;53242;51.694;10.006;2023-05-13T02:41:32;99877.91;;;12.99;60.00
66430;BME280;53242;51.694;10.006;2023-05-13T02:43:55;99879.69;;;12.92;59.77
66430;BME280;53242;51.694;10.006;2023-05-13T02:46:17;99872.38;;;12.80;60.81
66430;BME280;53242;51.694;10.006;2023-05-13T02:48:40;99875.75;;;12.61;61.35
66430;BME280;53242;51.694;10.006;2023-05-13T02:51:03;99876.16;;;12.58;61.81
66430;BME280;53242;51.694;10.006;2023-05-13T02:53:25;99875.91;;;12.46;62.39
66430;BME280;53242;51.694;10.006;2023-05-13T02:55:51;99871.84;;;12.57;61.83
66430;BME280;53242;51.694;10.006;2023-05-13T02:58:13;99873.75;;;12.70;61.23
66430;BME280;53242;51.694;10.006;2023-05-13T03:00:36;99869.50;;;12.75;60.86
66430;BME280;53242;51.694;10.006;2023-05-13T03:02:58;99874.72;;;12.62;61.14
66430;BME280;53242;51.694;10.006;2023-05-13T03:05:21;99872.91;;;12.62;61.58
66430;BME280;53242;51.694;10.006;2023-05-13T03:07:43;99870.66;;;12.66;60.99
66430;BME280;53242;51.694;10.006;2023-05-13T03:10:06;99880.88;;;12.62;61.13
66430;BME280;53242;51.694;10.006;2023-05-13T03:12:29;99876.34;;;12.49;62.34
66430;BME280;53242;51.694;10.006;2023-05-13T03:14:51;99872.41;;;12.45;62.29
66430;BME280;53242;51.694;10.006;2023-05-13T03:17:13;99868.22;;;12.58;62.19
66430;BME280;53242;51.694;10.006;2023-05-13T03:19:37;99879.81;;;12.57;62.04
66430;BME280;53242;51.694;10.006;2023-05-13T03:22:00;99880.38;;;12.45;62.91
66430;BME280;53242;51.694;10.006;2023-05-13T03:24:22;99885.06;;;12.50;62.88
66430;BME280;53242;51.694;10.006;2023-05-13T03:26:44;99888.91;;;12.41;63.23
66430;BME280;53242;51.694;10.006;2023-05-13T03:29:07;99888.16;;;12.54;63.00
66430;BME280;53242;51.694;10.006;2023-05-13T03:31:30;99891.75;;;12.39;63.01
66430;BME280;53242;51.694;10.006;2023-05-13T03:33:54;99889.75;;;12.48;63.93
66430;BME280;53242;51.694;10.006;2023-05-13T03:36:17;99895.38;;;12.31;63.76
66430;BME280;53242;51.694;10.006;2023-05-13T03:38:39;99892.13;;;12.36;64.06
66430;BME280;53242;51.694;10.006;2023-05-13T03:41:02;99897.63;;;12.34;64.53
66430;BME280;53242;51.694;10.006;2023-05-13T03:43:25;99899.25;;;12.29;64.75
66430;BME280;53242;51.694;10.006;2023-05-13T03:45:52;99904.69;;;12.21;64.96
66430;BME280;53242;51.694;10.006;2023-05-13T03:48:18;99901.75;;;12.44;63.93
66430;BME280;53242;51.694;10.006;2023-05-13T03:50:41;99906.34;;;12.28;64.08
66430;BME280;53242;51.694;10.006;2023-05-13T03:53:03;99910.47;;;12.38;63.65
66430;BME280;53242;51.694;10.006;2023-05-13T03:55:26;99912.50;;;12.36;63.36
66430;BME280;53242;51.694;10.006;2023-05-13T03:57:50;99909.31;;;12.47;63.14
66430;BME280;53242;51.694;10.006;2023-05-13T04:00:14;99906.53;;;12.69;62.80
66430;BME280;53242;51.694;10.006;2023-05-13T04:02:37;99902.44;;;12.66;63.29
66430;BME280;53242;51.694;10.006;2023-05-13T04:04:59;99899.72;;;12.46;64.15
66430;BME280;53242;51.694;10.006;2023-05-13T04:07:22;99913.00;;;12.59;64.03
66430;BME280;53242;51.694;10.006;2023-05-13T04:09:44;99896.78;;;12.76;63.81
66430;BME280;53242;51.694;10.006;2023-05-13T04:12:06;99901.09;;;12.90;62.62
66430;BME280;53242;51.694;10.006;2023-05-13T04:14:29;99900.06;;;12.85;62.23
66430;BME280;53242;51.694;10.006;2023-05-13T04:16:52;99901.31;;;12.89;61.81
66430;BME280;53242;51.694;10.006;2023-05-13T04:19:14;99913.56;;;12.96;61.49
66430;BME280;53242;51.694;10.006;2023-05-13T04:21:36;99908.69;;;13.00;61.76
66430;BME280;53242;51.694;10.006;2023-05-13T04:23:59;99907.06;;;13.12;60.88
66430;BME280;53242;51.694;10.006;2023-05-13T04:26:21;99912.19;;;13.21;60.35
66430;BME280;53242;51.694;10.006;2023-05-13T04:28:44;99910.16;;;13.23;61.75
66430;BME280;53242;51.694;10.006;2023-05-13T04:31:06;99911.38;;;13.20;61.54
66430;BME280;53242;51.694;10.006;2023-05-13T04:33:31;99907.91;;;13.20;62.32
66430;BME280;53242;51.694;10.006;2023-05-13T04:35:54;99908.91;;;13.12;63.53
66430;BME280;53242;51.694;10.006;2023-05-13T04:38:17;99920.34;;;13.26;62.88
66430;BME280;53242;51.694;10.006;2023-05-13T04:40:42;99915.06;;;13.32;62.97
66430;BME280;53242;51.694;10.006;2023-05-13T04:43:06;99908.09;;;13.11;64.06
66430;BME280;53242;51.694;10.006;2023-05-13T04:45:36;99912.34;;;13.12;64.09
66430;BME280;53242;51.694;10.006;2023-05-13T04:48:02;99923.56;;;13.08;64.61
66430;BME280;53242;51.694;10.006;2023-05-13T04:50:24;99913.78;;;13.15;63.94
66430;BME280;53242;51.694;10.006;2023-05-13T04:52:47;99924.38;;;13.08;64.50
66430;BME280;53242;51.694;10.006;2023-05-13T04:55:10;99919.72;;;13.10;64.87
66430;BME280;53242;51.694;10.006;2023-05-13T04:57:33;99918.88;;;13.10;64.31
66430;BME280;53242;51.694;10.006;2023-05-13T04:59:56;99916.66;;;13.13;63.57
66430;BME280;53242;51.694;10.006;2023-05-13T05:02:18;99921.31;;;12.98;64.13
66430;BME280;53242;51.694;10.006;2023-05-13T05:04:40;99926.81;;;13.10;64.35
66430;BME280;53242;51.694;10.006;2023-05-13T05:07:08;99924.78;;;13.05;64.62
66430;BME280;53242;51.694;10.006;2023-05-13T05:09:30;99921.50;;;13.03;64.55
66430;BME280;53242;51.694;10.006;2023-05-13T05:11:53;99929.88;;;13.00;65.02
66430;BME280;53242;51.694;10.006;2023-05-13T05:14:18;99926.81;;;13.10;64.32
66430;BME280;53242;51.694;10.006;2023-05-13T05:16:41;99931.91;;;12.98;65.02
66430;BME280;53242;51.694;10.006;2023-05-13T05:19:04;99937.66;;;13.15;64.33
66430;BME280;53242;51.694;10.006;2023-05-13T05:21:27;99930.69;;;13.07;65.12
66430;BME280;53242;51.694;10.006;2023-05-13T05:23:50;99940.41;;;13.48;63.52
66430;BME280;53242;51.694;10.006;2023-05-13T05:26:13;99938.34;;;13.37;63.17
66430;BME280;53242;51.694;10.006;2023-05-13T05:28:40;99941.78;;;14.31;60.37
66430;BME280;53242;51.694;10.006;2023-05-13T05:31:03;99939.84;;;14.72;59.34
66430;BME280;53242;51.694;10.006;2023-05-13T05:33:27;99934.56;;;15.04;58.44
66430;BME280;53242;51.694;10.006;2023-05-13T05:35:49;99933.53;;;14.67;59.53
66430;BME280;53242;51.694;10.006;2023-05-13T05:38:14;99938.63;;;15.13;57.34
66430;BME280;53242;51.694;10.006;2023-05-13T05:40:40;99938.09;;;15.30;56.42
66430;BME280;53242;51.694;10.006;2023-05-13T05:43:02;99942.34;;;15.38;56.38
66430;BME280;53242;51.694;10.006;2023-05-13T05:45:26;99939.78;;;14.86;57.86
66430;BME280;53242;51.694;10.006;2023-05-13T05:47:49;99945.81;;;15.06;57.68
66430;BME280;53242;51.694;10.006;2023-05-13T05:50:12;99944.81;;;14.42;59.40
66430;BME280;53242;51.694;10.006;2023-05-13T05:52:35;99942.53;;;15.04;57.70
66430;BME280;53242;51.694;10.006;2023-05-13T05:54:57;99946.78;;;14.73;58.41
66430;BME280;53242;51.694;10.006;2023-05-13T05:57:20;99946.91;;;14.92;58.06
66430;BME280;53242;51.694;10.006;2023-05-13T05:59:43;99946.22;;;14.65;58.24
66430;BME280;53242;51.694;10.006;2023-05-13T06:02:07;99948.94;;;14.18;59.88
66430;BME280;53242;51.694;10.006;2023-05-13T06:04:31;99948.34;;;14.16;59.33
66430;BME280;53242;51.694;10.006;2023-05-13T06:06:53;99948.69;;;14.39;58.94
66430;BME280;53242;51.694;10.006;2023-05-13T06:09:17;99940.69;;;14.66;58.62
66430;BME280;53242;51.694;10.006;2023-05-13T06:11:39;99946.59;;;14.75;58.13
66430;BME280;53242;51.694;10.006;2023-05-13T06:14:02;99944.34;;;14.65;58.95
66430;BME280;53242;51.694;10.006;2023-05-13T06:16:24;99950.06;;;15.14;57.58
66430;BME280;53242;51.694;10.006;2023-05-13T06:18:46;99940.56;;;15.32;57.55
66430;BME280;53242;51.694;10.006;2023-05-13T06:21:09;99944.47;;;15.29;57.35
66430;BME280;53242;51.694;10.006;2023-05-13T06:23:31;99946.16;;;15.17;57.19
66430;BME280;53242;51.694;10.006;2023-05-13T06:25:54;99939.81;;;15.50;56.29
66430;BME280;53242;51.694;10.006;2023-05-13T06:28:16;99945.06;;;15.31;56.62
66430;BME280;53242;51.694;10.006;2023-05-13T06:30:39;99946.84;;;15.69;55.89
66430;BME280;53242;51.694;10.006;2023-05-13T06:33:01;99946.78;;;15.76;55.79
66430;BME280;53242;51.694;10.006;2023-05-13T06:35:23;99943.16;;;15.70;56.38
66430;BME280;53242;51.694;10.006;2023-05-13T06:37:46;99936.88;;;15.90;55.48
66430;BME280;53242;51.694;10.006;2023-05-13T06:40:08;99939.47;;;15.97;55.10
66430;BME280;53242;51.694;10.006;2023-05-13T06:42:36;99940.88;;;15.99;55.45
66430;BME280;53242;51.694;10.006;2023-05-13T06:45:08;99949.56;;;16.32;54.94
66430;BME280;53242;51.694;10.006;2023-05-13T06:47:30;99949.94;;;16.17;55.42
66430;BME280;53242;51.694;10.006;2023-05-13T06:49:53;99950.94;;;15.97;55.82
66430;BME280;53242;51.694;10.006;2023-05-13T06:52:15;99950.69;;;15.73;56.32
66430;BME280;53242;51.694;10.006;2023-05-13T06:54:38;99940.81;;;15.81;56.21
66430;BME280;53242;51.694;10.006;2023-05-13T06:57:01;99953.88;;;15.57;57.27
66430;BME280;53242;51.694;10.006;2023-05-13T06:59:26;99945.69;;;15.58;57.30
66430;BME280;53242;51.694;10.006;2023-05-13T07:01:48;99946.66;;;15.96;56.37
66430;BME280;53242;51.694;10.006;2023-05-13T07:04:11;99936.31;;;15.81;56.84
66430;BME280;53242;51.694;10.006;2023-05-13T07:06:33;99950.25;;;15.83;57.75
66430;BME280;53242;51.694;10.006;2023-05-13T07:08:57;99954.31;;;15.54;58.50
66430;BME280;53242;51.694;10.006;2023-05-13T07:11:19;99949.00;;;15.79;57.92
66430;BME280;53242;51.694;10.006;2023-05-13T07:13:42;99943.31;;;15.75;57.72
66430;BME280;53242;51.694;10.006;2023-05-13T07:16:05;99946.03;;;16.19;57.18
66430;BME280;53242;51.694;10.006;2023-05-13T07:18:28;99941.56;;;16.13;57.08
66430;BME280;53242;51.694;10.006;2023-05-13T07:20:50;99946.19;;;15.99;57.80
66430;BME280;53242;51.694;10.006;2023-05-13T07:23:13;99947.66;;;16.39;57.29
66430;BME280;53242;51.694;10.006;2023-05-13T07:25:36;99949.63;;;16.25;57.77
66430;BME280;53242;51.694;10.006;2023-05-13T07:27:58;99945.50;;;16.29;57.94
66430;BME280;53242;51.694;10.006;2023-05-13T07:30:21;99951.19;;;16.33;58.32
66430;BME280;53242;51.694;10.006;2023-05-13T07:32:43;99949.09;;;16.16;58.39
66430;BME280;53242;51.694;10.006;2023-05-13T07:35:06;99945.63;;;16.16;58.55
66430;BME280;53242;51.694;10.006;2023-05-13T07:37:29;99945.63;;;16.16;58.40
66430;BME280;53242;51.694;10.006;2023-05-13T07:39:51;99946.31;;;15.86;59.26
66430;BME280;53242;51.694;10.006;2023-05-13T07:42:14;99940.28;;;15.97;59.18
66430;BME280;53242;51.694;10.006;2023-05-13T07:44:37;99935.44;;;16.13;59.04
66430;BME280;53242;51.694;10.006;2023-05-13T07:47:01;99938.22;;;15.99;59.16
66430;BME280;53242;51.694;10.006;2023-05-13T07:49:23;99938.91;;;16.13;58.66
66430;BME280;53242;51.694;10.006;2023-05-13T07:51:46;99935.28;;;16.26;58.27
66430;BME280;53242;51.694;10.006;2023-05-13T07:54:08;99935.88;;;16.09;59.35
66430;BME280;53242;51.694;10.006;2023-05-13T07:56:31;99933.75;;;15.93;59.48
66430;BME280;53242;51.694;10.006;2023-05-13T07:58:53;99933.72;;;16.18;59.71
66430;BME280;53242;51.694;10.006;2023-05-13T08:01:16;99933.66;;;16.25;59.14
66430;BME280;53242;51.694;10.006;2023-05-13T08:03:38;99940.00;;;16.24;59.49
66430;BME280;53242;51.694;10.006;2023-05-13T08:06:01;99936.94;;;16.27;59.48
66430;BME280;53242;51.694;10.006;2023-05-13T08:08:23;99935.88;;;16.84;57.85
66430;BME280;53242;51.694;10.006;2023-05-13T08:10:45;99936.47;;;17.16;57.46
66430;BME280;53242;51.694;10.006;2023-05-13T08:13:08;99934.56;;;17.35;57.26
66430;BME280;53242;51.694;10.006;2023-05-13T08:15:30;99935.53;;;17.11;57.73
66430;BME280;53242;51.694;10.006;2023-05-13T08:17:53;99934.91;;;16.97;57.93
66430;BME280;53242;51.694;10.006;2023-05-13T08:20:15;99932.50;;;17.49;56.31
66430;BME280;53242;51.694;10.006;2023-05-13T08:22:40;99914.19;;;17.88;54.91
66430;BME280;53242;51.694;10.006;2023-05-13T08:25:02;99921.50;;;17.69;55.01
66430;BME280;53242;51.694;10.006;2023-05-13T08:27:25;99922.25;;;17.22;56.79
66430;BME280;53242;51.694;10.006;2023-05-13T08:29:47;99927.41;;;16.87;57.91
66430;BME280;53242;51.694;10.006;2023-05-13T08:32:10;99925.03;;;16.97;58.29
66430;BME280;53242;51.694;10.006;2023-05-13T08:34:33;99925.50;;;16.94;58.36
66430;BME280;53242;51.694;10.006;2023-05-13T08:36:55;99916.81;;;16.99;58.41
66430;BME280;53242;51.694;10.006;2023-05-13T08:39:18;99917.94;;;16.91;58.01
66430;BME280;53242;51.694;10.006;2023-05-13T08:41:40;99929.00;;;17.49;56.65
66430;BME280;53242;51.694;10.006;2023-05-13T08:44:04;99913.16;;;17.78;56.11
66430;BME280;53242;51.694;10.006;2023-05-13T08:46:28;99923.13;;;17.47;57.00
66430;BME280;53242;51.694;10.006;2023-05-13T08:48:54;99920.88;;;17.32;57.59
66430;BME280;53242;51.694;10.006;2023-05-13T08:51:16;99918.06;;;17.26;58.05
66430;BME280;53242;51.694;10.006;2023-05-13T08:53:39;99918.06;;;17.26;58.40
66430;BME280;53242;51.694;10.006;2023-05-13T08:56:02;99912.97;;;17.25;58.89
66430;BME280;53242;51.694;10.006;2023-05-13T08:58:26;99920.19;;;17.36;58.79
66430;BME280;53242;51.694;10.006;2023-05-13T09:00:49;99916.75;;;17.59;57.75
66430;BME280;53242;51.694;10.006;2023-05-13T09:03:13;99917.31;;;17.50;58.24
66430;BME280;53242;51.694;10.006;2023-05-13T09:05:36;99921.91;;;17.42;59.17
66430;BME280;53242;51.694;10.006;2023-05-13T09:08:07;99917.53;;;17.36;59.86
66430;BME280;53242;51.694;10.006;2023-05-13T09:10:30;99908.94;;;17.46;59.12
66430;BME280;53242;51.694;10.006;2023-05-13T09:12:54;99905.47;;;17.46;59.82
66430;BME280;53242;51.694;10.006;2023-05-13T09:15:18;99904.44;;;17.70;59.38
66430;BME280;53242;51.694;10.006;2023-05-13T09:17:42;99907.13;;;17.70;59.18
66430;BME280;53242;51.694;10.006;2023-05-13T09:20:11;99908.81;;;18.48;57.79
66430;BME280;53242;51.694;10.006;2023-05-13T09:22:37;99907.16;;;18.99;55.98
66430;BME280;53242;51.694;10.006;2023-05-13T09:25:01;99899.72;;;19.35;55.37
66430;BME280;53242;51.694;10.006;2023-05-13T09:27:36;99899.50;;;19.54;55.94
66430;BME280;53242;51.694;10.006;2023-05-13T09:30:01;99899.88;;;19.12;56.55
66430;BME280;53242;51.694;10.006;2023-05-13T09:32:24;99895.25;;;18.78;57.47
66430;BME280;53242;51.694;10.006;2023-05-13T09:34:46;99902.34;;;18.72;57.65
66430;BME280;53242;51.694;10.006;2023-05-13T09:37:16;99903.44;;;18.60;58.49
66430;BME280;53242;51.694;10.006;2023-05-13T09:39:40;99900.44;;;18.56;58.58
66430;BME280;53242;51.694;10.006;2023-05-13T09:42:02;99896.84;;;18.50;59.11
66430;BME280;53242;51.694;10.006;2023-05-13T09:44:25;99897.19;;;18.54;58.92
66430;BME280;53242;51.694;10.006;2023-05-13T09:46:50;99895.94;;;18.45;60.12
66430;BME280;53242;51.694;10.006;2023-05-13T09:49:14;99896.94;;;18.55;60.49
66430;BME280;53242;51.694;10.006;2023-05-13T09:51:36;99893.56;;;18.60;61.36
66430;BME280;53242;51.694;10.006;2023-05-13T09:54:06;99894.91;;;18.74;64.20
66430;BME280;53242;51.694;10.006;2023-05-13T09:56:28;99896.22;;;18.89;62.04
66430;BME280;53242;51.694;10.006;2023-05-13T09:58:52;99890.66;;;18.62;64.24
66430;BME280;53242;51.694;10.006;2023-05-13T10:01:14;99893.00;;;18.87;62.53
66430;BME280;53242;51.694;10.006;2023-05-13T10:03:37;99895.19;;;19.70;60.55
66430;BME280;53242;51.694;10.006;2023-05-13T10:06:01;99891.94;;;20.24;59.23
66430;BME280;53242;51.694;10.006;2023-05-13T10:08:26;99887.69;;;20.06;58.63
66430;BME280;53242;51.694;10.006;2023-05-13T10:10:53;99896.72;;;20.00;57.59
66430;BME280;53242;51.694;10.006;2023-05-13T10:13:19;99900.34;;;20.11;58.01
66430;BME280;53242;51.694;10.006;2023-05-13T10:15:51;99900.03;;;20.07;57.43
66430;BME280;53242;51.694;10.006;2023-05-13T10:18:15;99895.16;;;20.04;56.52
66430;BME280;53242;51.694;10.006;2023-05-13T10:20:38;99897.56;;;20.23;57.20
66430;BME280;53242;51.694;10.006;2023-05-13T10:23:01;99893.63;;;20.52;55.48
66430;BME280;53242;51.694;10.006;2023-05-13T10:25:24;99896.47;;;20.90;54.28
66430;BME280;53242;51.694;10.006;2023-05-13T10:27:46;99890.78;;;21.14;53.21
66430;BME280;53242;51.694;10.006;2023-05-13T10:30:10;99885.16;;;21.15;50.62
66430;BME280;53242;51.694;10.006;2023-05-13T10:32:33;99886.44;;;21.40;48.34
66430;BME280;53242;51.694;10.006;2023-05-13T10:35:14;99883.44;;;21.04;46.38
66430;BME280;53242;51.694;10.006;2023-05-13T10:37:53;99877.56;;;21.72;47.07
66430;BME280;53242;51.694;10.006;2023-05-13T10:45:32;99881.25;;;20.96;47.75
66430;BME280;53242;51.694;10.006;2023-05-13T10:47:54;99894.19;;;20.77;48.02
66430;BME280;53242;51.694;10.006;2023-05-13T10:50:22;99888.13;;;20.64;47.15
66430;BME280;53242;51.694;10.006;2023-05-13T10:52:48;99884.22;;;20.28;46.69
66430;BME280;53242;51.694;10.006;2023-05-13T10:55:15;99891.50;;;20.32;46.61
66430;BME280;53242;51.694;10.006;2023-05-13T10:57:38;99894.88;;;20.23;46.83
66430;BME280;53242;51.694;10.006;2023-05-13T11:00:28;99895.97;;;20.04;43.94
66430;BME280;53242;51.694;10.006;2023-05-13T11:02:53;99899.06;;;20.13;45.82
66430;BME280;53242;51.694;10.006;2023-05-13T11:05:18;99898.81;;;19.81;46.88
66430;BME280;53242;51.694;10.006;2023-05-13T11:07:53;99901.38;;;19.87;43.90
66430;BME280;53242;51.694;10.006;2023-05-13T11:10:26;99893.56;;;20.03;45.16
66430;BME280;53242;51.694;10.006;2023-05-13T11:15:46;99903.97;;;20.21;43.48
66430;BME280;53242;51.694;10.006;2023-05-13T11:18:11;99902.44;;;20.70;44.15
66430;BME280;53242;51.694;10.006;2023-05-13T11:20:36;99895.09;;;20.88;44.35
66430;BME280;53242;51.694;10.006;2023-05-13T11:22:58;99895.09;;;20.88;43.99
66430;BME280;53242;51.694;10.006;2023-05-13T11:25:25;99901.91;;;21.55;43.08
66430;BME280;53242;51.694;10.006;2023-05-13T11:27:48;99896.63;;;21.71;42.69
66430;BME280;53242;51.694;10.006;2023-05-13T11:30:21;99883.81;;;21.88;43.61
66430;BME280;53242;51.694;10.006;2023-05-13T11:35:21;99903.66;;;21.77;41.83
66430;BME280;53242;51.694;10.006;2023-05-13T11:37:44;99880.47;;;21.65;40.91
66430;BME280;53242;51.694;10.006;2023-05-13T11:40:07;99880.91;;;21.90;41.34
66430;BME280;53242;51.694;10.006;2023-05-13T11:42:30;99877.25;;;22.16;41.36
66430;BME280;53242;51.694;10.006;2023-05-13T11:44:52;99878.88;;;22.17;40.11
66430;BME280;53242;51.694;10.006;2023-05-13T11:47:24;99883.31;;;21.91;39.79
66430;BME280;53242;51.694;10.006;2023-05-13T11:49:47;99887.50;;;21.72;39.61
66430;BME280;53242;51.694;10.006;2023-05-13T11:52:19;99892.16;;;21.49;38.56
66430;BME280;53242;51.694;10.006;2023-05-13T11:54:42;99889.13;;;21.78;37.64
66430;BME280;53242;51.694;10.006;2023-05-13T11:57:22;99880.88;;;22.38;37.75
66430;BME280;53242;51.694;10.006;2023-05-13T12:00:05;99875.22;;;22.39;40.05
66430;BME280;53242;51.694;10.006;2023-05-13T12:02:32;99874.50;;;22.64;38.33
66430;BME280;53242;51.694;10.006;2023-05-13T12:05:01;99874.28;;;22.81;38.83
66430;BME280;53242;51.694;10.006;2023-05-13T12:07:25;99873.44;;;22.81;38.26
66430;BME280;53242;51.694;10.006;2023-05-13T12:09:54;99876.34;;;22.54;37.39
66430;BME280;53242;51.694;10.006;2023-05-13T12:12:18;99873.13;;;22.46;37.10
66430;BME280;53242;51.694;10.006;2023-05-13T12:14:42;99872.66;;;22.07;35.32
66430;BME280;53242;51.694;10.006;2023-05-13T12:17:05;99871.22;;;22.42;34.69
66430;BME280;53242;51.694;10.006;2023-05-13T12:19:27;99861.81;;;22.49;34.25
66430;BME280;53242;51.694;10.006;2023-05-13T12:21:50;99871.84;;;22.75;32.75
66430;BME280;53242;51.694;10.006;2023-05-13T12:24:21;99867.81;;;22.72;31.78
66430;BME280;53242;51.694;10.006;2023-05-13T12:26:44;99868.63;;;22.93;33.22
66430;BME280;53242;51.694;10.006;2023-05-13T12:29:07;99858.66;;;23.04;33.17
66430;BME280;53242;51.694;10.006;2023-05-13T12:31:29;99867.78;;;22.67;32.95
66430;BME280;53242;51.694;10.006;2023-05-13T12:33:52;99857.31;;;23.07;33.40
66430;BME280;53242;51.694;10.006;2023-05-13T12:39:01;99868.91;;;22.08;32.50
66430;BME280;53242;51.694;10.006;2023-05-13T12:41:36;99873.59;;;21.85;33.87
66430;BME280;53242;51.694;10.006;2023-05-13T12:44:12;99880.03;;;21.46;33.85
66430;BME280;53242;51.694;10.006;2023-05-13T12:46:36;99878.81;;;21.27;32.90
66430;BME280;53242;51.694;10.006;2023-05-13T12:49:00;99866.97;;;21.98;32.57
66430;BME280;53242;51.694;10.006;2023-05-13T12:51:23;99869.50;;;22.25;32.32
66430;BME280;53242;51.694;10.006;2023-05-13T12:53:45;99865.75;;;22.31;30.96
66430;BME280;53242;51.694;10.006;2023-05-13T12:56:07;99860.16;;;22.38;30.77